Lolita, Texas
Current Conditions -  °F | °C
As of 3:35 AM on Saturday 25 Oct 2014 (Local Time) from KPKV Reporting Station
Clear Clear  
Wind Chill: 61°   Ceiling: Unl
Heat Index: 61°   Visibility: 10mi
Dew Point: 58°   Wind: 6mph
Humidity: 92%   Direction: 310°NW
Pressure: 30.13"   Gusts: NA
Location:  28.84°N, 96.54°W
Report Text: KPKV 250835Z AUTO 31005KT 10SM CLR 16/15 A3013 RMK AO2 T01590146
Loading
Personal Weather Stations






























Interactive Weather Map
Tropical Storm Tracking
New forecast layout! Learn more

10-Day Weather Forecast

Advertisements
Track Severe Weather on mobile